Notre-Dame-Du-Lac, Canada
Current Conditions -  °F | °C
As of 11:50 AM on Saturday 22 Nov 2014 (Local Time) from KFVE Reporting Station
Light Snow Light Snow  
Wind Chill:   Ceiling: 3200
Heat Index: 18°   Visibility: 1.5mi
Dew Point: 12°   Wind: 9mph
Humidity: 79%   Direction: 200°SSW
Pressure: 29.85"   Gusts: 17mph
Location:  47.6°N, 68.8°W
Report Text: KFVE 221650Z AUTO 20008G15KT 1 1/2SM -SN OVC032 M08/M11 A2985 RMK AO2 SNB30 P0000
Loading
Personal Weather Stations






























Interactive Weather Map New forecast layout! Learn more

10-Day Weather Forecast

Advertisements
Track Severe Weather on mobile